Time;durP1;ratioP1;P1;durP2;ratioP2;P2;SDS_P1;SDS_P2;PMS_P1;PMS_P2;Temp;Humidity;BMP_temperature;BMP_pressure;BME280_temperature;BME280_humidity;BME280_pressure;Samples;Min_cycle;Max_cycle;Signal;HPM_P1;HPM_P2
2022/06/27 00:00:10;;;;;;;20.40;3.15;;;13.70;99.90;;;;;;4972311;28;20208;-63
2022/06/27 00:02:37;;;;;;;19.47;2.90;;;13.50;99.90;;;;;;4954478;28;20537;-63
2022/06/27 00:05:05;;;;;;;11.63;1.70;;;13.70;99.90;;;;;;4971714;28;20252;-63
2022/06/27 00:07:30;;;;;;;20.43;2.87;;;13.70;99.90;;;;;;4971860;28;20219;-64
2022/06/27 00:09:56;;;;;;;23.87;2.83;;;13.70;99.90;;;;;;4971982;28;20176;-63
2022/06/27 00:12:22;;;;;;;20.33;2.30;;;13.70;99.90;;;;;;4971514;28;20169;-64
2022/06/27 00:14:48;;;;;;;17.77;2.40;;;13.60;99.90;;;;;;4972037;28;20647;-63
2022/06/27 00:17:14;;;;;;;22.02;2.42;;;13.60;99.90;;;;;;4971620;28;20175;-63
2022/06/27 00:19:40;;;;;;;14.90;2.63;;;13.70;99.90;;;;;;4971675;28;20571;-63
2022/06/27 00:22:05;;;;;;;17.27;2.90;;;13.80;99.90;;;;;;4971026;28;20739;-63
2022/06/27 00:24:32;;;;;;;18.08;2.65;;;13.60;99.90;;;;;;4971528;28;20183;-63
2022/06/27 00:26:58;;;;;;;23.20;2.58;;;13.70;99.90;;;;;;4971746;28;20176;-63
2022/06/27 00:29:23;;;;;;;11.70;2.10;;;13.70;99.90;;;;;;4971476;28;20813;-63
2022/06/27 00:31:49;;;;;;;21.05;2.70;;;13.70;99.90;;;;;;4971596;28;20176;-64
2022/06/27 00:34:16;;;;;;;14.80;2.40;;;13.70;99.90;;;;;;4971708;28;20187;-64
2022/06/27 00:36:42;;;;;;;20.20;2.53;;;13.60;99.90;;;;;;4971242;28;20175;-64
2022/06/27 00:39:08;;;;;;;18.23;2.80;;;13.70;99.90;;;;;;4971271;28;20699;-64
2022/06/27 00:41:34;;;;;;;16.93;2.57;;;13.60;99.90;;;;;;4971586;28;20278;-64
2022/06/27 00:44:00;;;;;;;17.63;2.60;;;10.50;99.90;;;;;;4971305;28;20179;-64
2022/06/27 00:46:27;;;;;;;11.97;1.97;;;13.60;99.90;;;;;;4971866;28;20176;-64
2022/06/27 00:48:53;;;;;;;14.43;2.17;;;13.60;99.90;;;;;;4971296;28;20204;-64
2022/06/27 00:51:19;;;;;;;19.53;1.73;;;13.60;99.90;;;;;;4971809;28;20250;-64
2022/06/27 00:53:44;;;;;;;16.05;1.58;;;13.60;99.90;;;;;;4971514;28;20259;-64
2022/06/27 00:56:11;;;;;;;9.87;1.53;;;13.50;99.90;;;;;;4971281;28;20200;-64
2022/06/27 00:58:37;;;;;;;12.83;1.97;;;13.60;99.90;;;;;;4971521;28;20176;-64
2022/06/27 01:01:03;;;;;;;15.13;1.90;;;13.60;99.90;;;;;;4971315;28;20718;-64
2022/06/27 01:03:29;;;;;;;19.63;3.07;;;13.60;99.90;;;;;;4971224;28;20266;-63
2022/06/27 01:05:56;;;;;;;12.47;1.83;;;13.60;99.90;;;;;;4971780;28;20738;-63
2022/06/27 01:08:25;;;;;;;11.43;2.20;;;13.60;99.90;;;;;;4970835;28;20259;-62
2022/06/27 01:10:52;;;;;;;9.97;2.03;;;13.50;99.90;;;;;;4971073;28;20659;-62
2022/06/27 01:13:18;;;;;;;16.17;2.13;;;13.50;99.90;;;;;;4972010;28;20183;-62
2022/06/27 01:15:45;;;;;;;20.43;2.30;;;13.60;99.90;;;;;;4971433;28;20169;-62
2022/06/27 01:18:12;;;;;;;16.90;2.20;;;13.70;99.90;;;;;;4971050;28;20172;-62
2022/06/27 01:20:41;;;;;;;9.10;1.13;;;13.50;99.90;;;;;;4970898;28;20216;-62
2022/06/27 01:23:07;;;;;;;11.40;1.88;;;15.50;99.90;;;;;;4971373;28;20171;-62
2022/06/27 01:25:35;;;;;;;19.50;2.33;;;13.60;99.90;;;;;;4970956;28;20180;-62
2022/06/27 01:28:02;;;;;;;13.23;1.50;;;13.80;99.90;;;;;;4971240;28;20685;-63
2022/06/27 01:30:29;;;;;;;11.83;1.60;;;13.50;99.90;;;;;;4971147;28;20469;-61
2022/06/27 01:32:54;;;;;;;8.52;1.67;;;13.60;99.90;;;;;;4971023;28;20179;-62
2022/06/27 01:35:20;;;;;;;9.13;1.50;;;13.60;99.90;;;;;;4971401;28;20844;-62
2022/06/27 01:37:46;;;;;;;11.27;1.40;;;13.60;99.90;;;;;;4971027;28;20215;-62
2022/06/27 01:40:14;;;;;;;11.53;1.73;;;13.60;99.90;;;;;;4970351;28;20588;-62
2022/06/27 01:42:39;;;;;;;8.03;1.50;;;13.70;99.90;;;;;;4972116;28;20172;-61
2022/06/27 01:45:06;;;;;;;10.07;1.63;;;13.70;99.90;;;;;;4974660;28;20536;-63
2022/06/27 01:47:31;;;;;;;13.40;1.67;;;13.60;99.90;;;;;;4974365;28;20187;-62
2022/06/27 01:49:57;;;;;;;7.30;1.03;;;13.50;99.90;;;;;;4974147;28;20645;-62
2022/06/27 01:52:23;;;;;;;8.83;1.50;;;13.60;99.90;;;;;;4974311;28;20192;-62
2022/06/27 01:54:49;;;;;;;9.33;1.87;;;13.70;99.90;;;;;;4974533;28;20180;-61
2022/06/27 01:57:18;;;;;;;10.63;1.60;;;13.70;99.90;;;;;;4974072;28;20218;-61
2022/06/27 01:59:45;;;;;;;10.30;1.27;;;13.70;99.90;;;;;;4974542;28;20285;-62
2022/06/27 02:02:11;;;;;;;7.07;1.10;;;13.70;99.90;;;;;;4973973;28;20179;-62
2022/06/27 02:04:37;;;;;;;8.63;1.40;;;13.70;99.90;;;;;;4974141;28;20184;-61
2022/06/27 02:07:05;;;;;;;13.10;1.40;;;13.50;99.90;;;;;;4973949;28;20307;-62
2022/06/27 02:09:30;;;;;;;7.87;1.00;;;13.60;99.90;;;;;;4956697;28;20172;-62
2022/06/27 02:11:56;;;;;;;15.85;1.98;;;13.70;99.90;;;;;;4973995;28;20182;-62
2022/06/27 02:14:24;;;;;;;9.07;1.60;;;13.70;99.90;;;;;;4973544;28;20175;-62
2022/06/27 02:16:50;;;;;;;6.03;1.27;;;13.70;99.90;;;;;;4974016;28;20183;-62
2022/06/27 02:19:18;;;;;;;5.68;1.10;;;13.80;99.90;;;;;;4974093;28;20172;-62
2022/06/27 02:21:45;;;;;;;8.60;1.45;;;14.00;99.90;;;;;;4973548;28;20172;-63
2022/06/27 02:24:12;;;;;;;8.00;1.38;;;13.80;99.90;;;;;;4973783;28;20187;-62
2022/06/27 02:26:38;;;;;;;9.07;1.60;;;13.80;99.90;;;;;;4973743;28;20175;-62
2022/06/27 02:29:05;;;;;;;7.63;1.13;;;13.80;99.90;;;;;;4973497;28;20179;-63
2022/06/27 02:31:31;;;;;;;9.68;1.42;;;13.70;99.90;;;;;;4973644;28;20183;-63
2022/06/27 02:33:57;;;;;;;8.27;1.35;;;13.80;99.90;;;;;;4973264;28;20528;-62
2022/06/27 02:36:39;;;;;;;10.75;1.63;;;13.80;99.90;;;;;;4973857;28;20172;-63
2022/06/27 02:39:06;;;;;;;7.43;1.08;;;13.80;99.90;;;;;;4973522;28;20258;-62
2022/06/27 02:41:34;;;;;;;10.27;1.07;;;13.90;99.90;;;;;;4973480;28;20615;-63
2022/06/27 02:44:04;;;;;;;7.53;0.90;;;13.90;99.90;;;;;;4972659;28;20186;-63
2022/06/27 02:46:30;;;;;;;5.20;1.20;;;13.80;99.90;;;;;;4972548;28;20180;-63
2022/06/27 02:48:58;;;;;;;9.57;1.33;;;13.80;99.90;;;;;;4973192;28;20668;-63
2022/06/27 02:51:28;;;;;;;4.47;0.77;;;13.80;99.90;;;;;;4973311;28;20168;-62
2022/06/27 02:54:03;;;;;;;7.90;1.20;;;13.80;99.90;;;;;;4970267;28;20175;-64
2022/06/27 02:56:31;;;;;;;6.07;0.80;;;13.80;99.90;;;;;;4973463;28;20179;-63
2022/06/27 02:59:12;;;;;;;14.25;1.17;;;13.80;99.90;;;;;;4973407;28;20330;-64
2022/06/27 03:01:41;;;;;;;6.80;1.10;;;13.80;99.90;;;;;;4972867;28;20194;-63
2022/06/27 03:04:07;;;;;;;6.87;1.10;;;;;;;;;;4972857;28;20184;-63
2022/06/27 03:06:33;;;;;;;6.83;0.70;;;13.70;99.90;;;;;;4972568;28;20231;-63
2022/06/27 03:08:59;;;;;;;7.07;0.63;;;13.80;99.90;;;;;;4973086;28;20555;-63
2022/06/27 03:11:25;;;;;;;4.30;0.70;;;13.60;99.90;;;;;;4972868;28;20232;-63
2022/06/27 03:13:53;;;;;;;7.00;1.20;;;13.50;99.90;;;;;;4972852;28;20246;-64
2022/06/27 03:16:21;;;;;;;7.80;1.20;;;13.60;99.90;;;;;;4973125;28;20171;-63
2022/06/27 03:18:48;;;;;;;9.77;1.17;;;13.40;99.90;;;;;;4973056;28;20631;-64
2022/06/27 03:21:17;;;;;;;7.67;1.10;;;13.50;99.90;;;;;;4972479;28;20215;-63
2022/06/27 03:23:45;;;;;;;10.27;1.20;;;13.40;99.90;;;;;;4972240;28;20676;-63
2022/06/27 03:26:10;;;;;;;7.40;0.97;;;13.50;99.90;;;;;;4972392;28;20647;-63
2022/06/27 03:28:36;;;;;;;11.77;1.23;;;13.30;99.90;;;;;;4972319;28;20187;-63
2022/06/27 03:31:02;;;;;;;3.73;0.93;;;13.40;99.90;;;;;;4971940;28;20179;-64
2022/06/27 03:33:28;;;;;;;5.03;1.00;;;13.30;99.90;;;;;;4971703;28;20739;-64
2022/06/27 03:35:54;;;;;;;7.70;1.40;;;13.30;99.90;;;;;;4972016;28;20175;-65
2022/06/27 03:38:20;;;;;;;5.63;0.87;;;13.40;99.90;;;;;;4972048;28;20187;-64
2022/06/27 03:40:46;;;;;;;2.87;0.70;;;13.30;99.90;;;;;;4971887;28;20246;-64
2022/06/27 03:43:11;;;;;;;6.03;0.93;;;13.30;99.90;;;;;;4971669;28;20251;-64
2022/06/27 03:45:38;;;;;;;4.87;1.00;;;13.30;99.90;;;;;;4972339;28;20198;-63
2022/06/27 03:48:04;;;;;;;5.80;1.17;;;13.20;99.90;;;;;;4972158;28;20176;-63
2022/06/27 03:50:30;;;;;;;6.83;1.53;;;13.30;99.90;;;;;;4971941;28;20188;-63
2022/06/27 03:52:56;;;;;;;5.87;1.00;;;13.30;99.90;;;;;;4972518;28;20179;-63
2022/06/27 03:55:23;;;;;;;8.50;1.20;;;13.30;99.90;;;;;;4972110;28;20186;-63
2022/06/27 03:57:54;;;;;;;6.67;0.93;;;13.30;99.90;;;;;;4972086;28;20175;-63
2022/06/27 04:00:22;;;;;;;7.63;1.57;;;13.30;99.90;;;;;;4971741;28;20227;-63
2022/06/27 04:02:48;;;;;;;9.67;2.00;;;13.30;99.90;;;;;;4971645;28;20176;-63
2022/06/27 04:05:15;;;;;;;5.20;1.20;;;13.30;99.90;;;;;;4971667;28;20175;-63
2022/06/27 04:07:41;;;;;;;6.37;1.20;;;13.20;99.90;;;;;;4972218;28;20714;-62
2022/06/27 04:10:08;;;;;;;9.63;1.60;;;13.20;99.90;;;;;;4972155;28;20171;-62
2022/06/27 04:12:34;;;;;;;8.77;1.40;;;13.30;99.90;;;;;;4972193;28;20592;-63
2022/06/27 04:15:01;;;;;;;8.53;1.43;;;13.40;99.90;;;;;;4971904;28;20179;-63
2022/06/27 04:17:26;;;;;;;5.73;0.97;;;13.30;99.90;;;;;;4972120;28;20179;-63
2022/06/27 04:19:52;;;;;;;8.50;1.30;;;13.30;99.90;;;;;;4972195;28;20327;-63
2022/06/27 04:22:18;;;;;;;8.43;1.17;;;13.30;99.90;;;;;;4972097;28;20603;-63
2022/06/27 04:24:44;;;;;;;5.87;1.23;;;13.20;99.90;;;;;;4971710;28;20187;-63
2022/06/27 04:27:09;;;;;;;8.47;1.20;;;13.20;99.90;;;;;;4971678;28;20530;-63
2022/06/27 04:29:35;;;;;;;4.00;0.90;;;13.30;99.90;;;;;;4971464;28;20623;-63
2022/06/27 04:32:01;;;;;;;6.47;1.00;;;13.20;99.90;;;;;;4971483;28;20283;-64
2022/06/27 04:34:27;;;;;;;3.63;0.77;;;13.20;99.90;;;;;;4953608;28;20275;-63
2022/06/27 04:36:53;;;;;;;5.73;0.83;;;13.20;99.90;;;;;;4971808;28;20183;-63
2022/06/27 04:39:20;;;;;;;7.53;0.93;;;13.30;99.90;;;;;;4971804;28;20172;-63
2022/06/27 04:41:47;;;;;;;4.73;0.80;;;13.30;99.90;;;;;;4969895;28;20176;-63
2022/06/27 04:44:13;;;;;;;5.47;0.97;;;13.30;99.90;;;;;;4971777;28;20202;-63
2022/06/27 04:46:41;;;;;;;9.03;1.17;;;13.30;99.90;;;;;;4971766;28;20180;-63
2022/06/27 04:49:08;;;;;;;4.83;0.70;;;13.30;99.90;;;;;;4954320;28;20168;-62
2022/06/27 04:51:35;;;;;;;7.17;0.97;;;13.30;99.90;;;;;;4971403;28;20278;-62
2022/06/27 04:54:01;;;;;;;9.63;1.23;;;13.30;99.90;;;;;;4971721;28;20168;-62
2022/06/27 04:56:28;;;;;;;6.07;0.80;;;13.30;99.90;;;;;;4971705;28;20259;-62
2022/06/27 04:58:54;;;;;;;6.27;0.83;;;13.30;99.90;;;;;;4971937;28;20184;-62
2022/06/27 05:01:20;;;;;;;4.73;0.73;;;13.30;99.90;;;;;;4971444;28;20226;-62
2022/06/27 05:03:46;;;;;;;5.90;1.10;;;13.20;99.90;;;;;;4971413;28;20532;-62
2022/06/27 05:06:12;;;;;;;4.53;0.60;;;13.20;99.90;;;;;;4971454;28;20677;-62
2022/06/27 05:08:38;;;;;;;8.47;1.20;;;13.30;99.90;;;;;;4971579;28;20577;-62
2022/06/27 05:11:04;;;;;;;6.73;0.90;;;13.40;99.90;;;;;;4970883;28;20211;-63
2022/06/27 05:13:31;;;;;;;8.00;1.07;;;13.20;99.90;;;;;;4971334;28;20234;-62
2022/06/27 05:15:58;;;;;;;9.07;1.00;;;13.20;99.90;;;;;;4971696;28;20191;-63
2022/06/27 05:18:24;;;;;;;8.00;0.97;;;13.30;99.90;;;;;;4974534;28;20642;-63
2022/06/27 05:20:50;;;;;;;8.20;1.40;;;13.20;99.90;;;;;;4974886;28;20408;-63
2022/06/27 05:23:16;;;;;;;6.93;0.87;;;13.20;99.90;;;;;;4975126;28;20203;-63
2022/06/27 05:25:41;;;;;;;6.37;1.00;;;13.30;99.90;;;;;;4974399;28;20713;-63
2022/06/27 05:28:08;;;;;;;4.67;1.00;;;13.30;99.90;;;;;;4954500;29;20207;-63
2022/06/27 05:30:34;;;;;;;6.83;0.90;;;13.30;99.90;;;;;;4971552;28;20180;-63
2022/06/27 05:33:00;;;;;;;4.33;0.70;;;13.30;99.90;;;;;;4975041;28;20172;-63
2022/06/27 05:35:26;;;;;;;5.73;0.80;;;13.20;99.90;;;;;;4975022;28;20238;-63
2022/06/27 05:37:54;;;;;;;6.03;0.90;;;13.30;99.90;;;;;;4974724;28;20211;-63
2022/06/27 05:40:20;;;;;;;7.20;0.70;;;13.30;99.90;;;;;;4974534;28;20266;-63
2022/06/27 05:42:47;;;;;;;6.90;1.10;;;13.30;99.90;;;;;;4974166;28;20593;-63
2022/06/27 05:45:13;;;;;;;5.63;0.70;;;13.30;99.90;;;;;;4974802;28;20176;-63
2022/06/27 05:47:40;;;;;;;7.97;0.97;;;13.30;99.90;;;;;;4974778;28;20183;-62
2022/06/27 05:50:07;;;;;;;5.97;1.00;;;13.40;99.90;;;;;;4974839;28;20180;-63
2022/06/27 05:52:33;;;;;;;9.67;1.03;;;13.40;99.90;;;;;;4974231;28;20385;-63
2022/06/27 05:54:59;;;;;;;8.60;1.15;;;13.40;99.90;;;;;;4974183;28;20188;-62
2022/06/27 05:57:27;;;;;;;5.97;0.90;;;13.40;99.90;;;;;;4974611;28;20190;-63
2022/06/27 05:59:55;;;;;;;4.90;1.00;;;13.40;99.90;;;;;;4974555;28;20203;-63
2022/06/27 06:02:25;;;;;;;7.10;0.90;;;13.30;99.90;;;;;;4974047;28;20275;-63
2022/06/27 06:04:51;;;;;;;4.07;0.83;;;13.40;99.90;;;;;;4974186;28;20191;-63
2022/06/27 06:07:17;;;;;;;5.10;0.70;;;13.50;99.90;;;;;;4973928;28;20223;-62
2022/06/27 06:09:44;;;;;;;6.50;0.83;;;13.50;99.90;;;;;;4974358;28;20525;-63
2022/06/27 06:12:11;;;;;;;7.70;0.95;;;13.40;99.90;;;;;;4974266;28;20193;-63
2022/06/27 06:14:38;;;;;;;10.70;0.97;;;13.50;99.90;;;;;;4974057;28;20184;-63
2022/06/27 06:17:04;;;;;;;4.97;0.93;;;13.60;99.90;;;;;;4974339;28;20168;-62
2022/06/27 06:19:31;;;;;;;8.03;0.93;;;13.70;99.90;;;;;;4972900;28;20180;-63
2022/06/27 06:21:58;;;;;;;4.88;0.85;;;13.80;99.90;;;;;;4973393;28;20184;-63
2022/06/27 06:24:27;;;;;;;4.75;1.27;;;13.70;99.90;;;;;;4974173;28;20176;-63
2022/06/27 06:26:53;;;;;;;4.22;0.80;;;13.70;99.90;;;;;;4973642;28;20203;-63
2022/06/27 06:29:21;;;;;;;5.57;0.80;;;13.90;99.90;;;;;;4973338;28;20176;-63
2022/06/27 06:31:48;;;;;;;4.38;1.00;;;13.80;99.90;;;;;;4972819;28;20191;-61
2022/06/27 06:34:15;;;;;;;4.18;0.80;;;13.90;99.90;;;;;;4972873;28;20735;-61
2022/06/27 06:36:43;;;;;;;5.32;0.93;;;13.90;99.90;;;;;;4972886;28;20183;-60
2022/06/27 06:39:10;;;;;;;3.53;0.85;;;13.90;99.90;;;;;;4973766;28;20659;-61
2022/06/27 06:41:36;;;;;;;7.88;1.05;;;14.00;99.90;;;;;;4973947;28;20203;-61
2022/06/27 06:44:06;;;;;;;4.63;0.90;;;13.90;99.90;;;;;;4972933;28;20165;-62
2022/06/27 06:46:33;;;;;;;6.10;0.93;;;14.20;99.90;;;;;;4973492;28;20234;-61
2022/06/27 06:49:02;;;;;;;4.70;0.98;;;13.90;99.90;;;;;;4972823;28;20239;-61
2022/06/27 06:51:34;;;;;;;4.40;0.90;;;14.00;99.90;;;;;;4972326;28;20180;-67
2022/06/27 06:54:04;;;;;;;8.73;0.95;;;13.90;99.90;;;;;;4972323;28;20183;-63
2022/06/27 06:56:30;;;;;;;6.87;1.20;;;14.00;99.90;;;;;;4973475;28;20215;-63
2022/06/27 06:59:03;;;;;;;8.80;2.25;;;14.30;99.90;;;;;;4973432;28;20635;-63
2022/06/27 07:01:33;;;;;;;6.03;1.23;;;14.10;99.90;;;;;;4973129;28;20218;-63
2022/06/27 07:03:59;;;;;;;7.97;1.23;;;14.20;99.90;;;;;;4972679;28;20203;-63
2022/06/27 07:06:25;;;;;;;6.15;1.75;;;14.00;99.90;;;;;;4973008;28;20172;-62
2022/06/27 07:08:57;;;;;;;7.30;1.23;;;14.30;99.90;;;;;;4972355;28;20180;-63
2022/06/27 07:11:25;;;;;;;6.93;1.35;;;14.30;99.90;;;;;;4973209;28;20183;-64
2022/06/27 07:13:52;;;;;;;6.03;1.38;;;14.40;99.90;;;;;;4971954;28;20172;-66
2022/06/27 07:16:19;;;;;;;4.63;1.33;;;14.40;99.90;;;;;;4955940;28;20184;-64
2022/06/27 07:18:48;;;;;;;6.35;1.42;;;14.50;99.90;;;;;;4954074;28;20664;-64
2022/06/27 07:21:19;;;;;;;5.93;1.27;;;14.50;99.90;;;;;;4953659;29;20213;-63
2022/06/27 07:23:47;;;;;;;7.25;1.25;;;14.50;99.90;;;;;;4953720;28;20192;-63
2022/06/27 07:26:17;;;;;;;8.48;1.23;;;14.60;99.90;;;;;;4953613;29;20235;-63
2022/06/27 07:28:44;;;;;;;5.93;1.05;;;14.60;99.90;;;;;;4954965;28;20172;-63
2022/06/27 07:31:12;;;;;;;6.25;1.08;;;14.60;99.90;;;;;;4972733;28;20198;-61
2022/06/27 07:33:51;;;;;;;5.65;0.85;;;14.70;99.90;;;;;;4972159;28;20233;-61
2022/06/27 07:36:18;;;;;;;5.43;1.17;;;14.70;99.90;;;;;;4972846;28;20681;-61
2022/06/27 07:38:46;;;;;;;5.32;0.82;;;14.60;99.90;;;;;;4972547;28;20216;-61
2022/06/27 07:41:14;;;;;;;5.53;1.10;;;14.70;99.90;;;;;;4971308;28;20234;-60
2022/06/27 07:43:44;;;;;;;7.72;1.15;;;14.60;99.90;;;;;;4971791;28;20183;-61
2022/06/27 07:46:10;;;;;;;4.40;0.95;;;14.60;99.90;;;;;;4972479;28;20192;-61
2022/06/27 07:48:36;;;;;;;4.53;0.93;;;14.30;99.90;;;;;;4972551;28;20176;-61
2022/06/27 07:51:02;;;;;;;5.50;1.08;;;14.20;99.90;;;;;;4971635;28;20669;-61
2022/06/27 07:53:29;;;;;;;6.50;1.00;;;14.10;99.90;;;;;;4971857;28;20187;-61
2022/06/27 07:55:56;;;;;;;9.32;1.63;;;14.00;99.90;;;;;;4972448;28;20195;-62
2022/06/27 07:58:30;;;;;;;4.75;1.17;;;14.00;99.90;;;;;;4972303;28;20179;-61
2022/06/27 08:00:58;;;;;;;8.30;1.42;;;14.00;99.90;;;;;;4971505;28;20247;-62
2022/06/27 08:03:36;;;;;;;5.78;1.48;;;14.00;99.90;;;;;;4972143;28;20184;-62
2022/06/27 08:06:26;;;;;;;12.60;1.75;;;14.20;99.90;;;;;;4972163;28;20191;-62
2022/06/27 08:08:55;;;;;;;5.68;1.45;;;14.20;99.90;;;;;;4971685;28;20277;-62
2022/06/27 08:11:23;;;;;;;6.57;2.00;;;15.70;99.90;;;;;;4971889;28;20183;-62
2022/06/27 08:13:52;;;;;;;5.90;1.55;;;14.50;99.90;;;;;;4972461;28;20191;-64
2022/06/27 08:16:20;;;;;;;6.57;1.90;;;14.50;99.90;;;;;;4972381;28;20238;-61
2022/06/27 08:18:51;;;;;;;5.75;1.83;;;14.60;99.90;;;;;;4972873;28;20180;-59
2022/06/27 08:21:25;;;;;;;12.68;2.00;;;14.80;99.90;;;;;;4971931;28;20754;-62
2022/06/27 08:23:52;;;;;;;4.60;1.48;;;14.70;99.90;;;;;;4971865;28;20172;-62
2022/06/27 08:26:18;;;;;;;3.88;1.40;;;14.70;99.90;;;;;;4971810;28;20566;-63
2022/06/27 08:28:46;;;;;;;4.05;1.38;;;14.70;99.90;;;;;;4971302;28;20163;-63
2022/06/27 08:31:13;;;;;;;5.45;1.40;;;14.70;99.90;;;;;;4971566;28;20202;-63
2022/06/27 08:33:40;;;;;;;7.40;1.50;;;14.70;99.90;;;;;;4971713;28;20180;-62
2022/06/27 08:36:06;;;;;;;5.80;1.77;;;15.00;99.90;;;;;;4971588;28;20301;-62
2022/06/27 08:38:39;;;;;;;7.40;1.55;;;15.00;99.90;;;;;;4970496;28;20242;-63
2022/06/27 08:41:05;;;;;;;8.10;1.30;;;15.10;99.90;;;;;;4970860;28;20227;-62
2022/06/27 08:43:31;;;;;;;5.57;1.30;;;15.00;99.90;;;;;;4970519;28;20179;-62
2022/06/27 08:45:58;;;;;;;8.48;1.60;;;15.10;99.90;;;;;;4971559;28;20176;-62
2022/06/27 08:48:24;;;;;;;5.65;1.30;;;15.10;99.90;;;;;;4971756;28;20172;-62
2022/06/27 08:50:50;;;;;;;8.38;1.40;;;15.10;99.90;;;;;;4971984;28;20490;-62
2022/06/27 08:53:17;;;;;;;7.28;1.50;;;15.20;99.90;;;;;;4975616;28;20264;-62
2022/06/27 08:55:48;;;;;;;7.32;1.10;;;15.50;99.90;;;;;;4957848;28;20179;-62
2022/06/27 08:58:14;;;;;;;5.50;1.48;;;15.40;99.90;;;;;;4975459;28;20192;-63
2022/06/27 09:00:45;;;;;;;8.60;1.42;;;15.70;99.90;;;;;;4975104;28;20293;-62
2022/06/27 09:03:13;;;;;;;8.95;1.60;;;16.40;99.90;;;;;;4957848;28;20555;-63
2022/06/27 09:05:38;;;;;;;8.38;1.40;;;17.10;99.90;;;;;;4975422;28;20210;-63
2022/06/27 09:08:07;;;;;;;6.90;1.40;;;17.50;99.90;;;;;;4975354;28;20785;-63
2022/06/27 09:10:37;;;;;;;5.70;1.33;;;17.40;99.90;;;;;;4975721;28;20187;-63
2022/06/27 09:13:06;;;;;;;10.63;1.73;;;18.00;99.90;;;;;;4973741;28;20184;-63
2022/06/27 09:15:46;;;;;;;6.22;1.23;;;18.00;99.90;;;;;;4975263;28;20164;-63
2022/06/27 09:18:15;;;;;;;10.90;1.67;;;18.00;99.90;;;;;;4975305;28;20195;-62
2022/06/27 09:20:55;;;;;;;5.53;1.40;;;17.60;99.90;;;;;;4974828;28;20281;-62
2022/06/27 09:23:47;;;;;;;6.15;1.58;;;17.30;99.90;;;;;;4975082;28;20183;-63
2022/06/27 09:26:19;;;;;;;6.20;1.77;;;17.30;99.90;;;;;;4970643;28;20192;-63
2022/06/27 09:28:50;;;;;;;8.98;1.63;;;17.10;99.90;;;;;;4974908;28;20326;-64
2022/06/27 09:31:28;;;;;;;5.72;1.50;;;17.20;99.90;;;;;;4973029;28;20184;-62
2022/06/27 09:34:14;;;;;;;6.88;1.65;;;17.20;99.90;;;;;;4973232;28;20180;-61
2022/06/27 09:37:01;;;;;;;5.93;1.90;;;17.20;99.90;;;;;;4972966;28;20487;-62
2022/06/27 09:39:39;;;;;;;10.13;1.60;;;17.30;99.90;;;;;;4973177;28;20237;-61
2022/06/27 09:42:06;;;;;;;7.38;1.70;;;17.20;99.90;;;;;;4972177;28;20199;-61
2022/06/27 09:44:32;;;;;;;10.73;1.77;;;17.00;99.90;;;;;;4972168;28;20184;-62
2022/06/27 09:47:20;;;;;;;3.78;1.27;;;17.30;99.90;;;;;;4975109;28;20238;-61
2022/06/27 09:49:52;;;;;;;3.90;1.27;;;17.70;99.90;;;;;;4974638;28;20176;-62
2022/06/27 09:52:23;;;;;;;9.10;1.40;;;17.60;99.90;;;;;;4974811;28;20238;-62
2022/06/27 09:54:51;;;;;;;7.97;1.33;;;17.30;99.90;;;;;;4974845;28;20172;-62
2022/06/27 09:57:18;;;;;;;8.18;1.90;;;17.30;99.90;;;;;;4973870;28;20203;-61
2022/06/27 09:59:46;;;;;;;8.60;1.60;;;17.20;99.90;;;;;;4957423;28;20270;-61
2022/06/27 10:02:16;;;;;;;6.95;1.20;;;17.90;99.90;;;;;;4974019;28;20168;-62
2022/06/27 10:04:46;;;;;;;11.55;1.15;;;19.50;99.90;;;;;;4974084;28;20263;-62
2022/06/27 10:07:13;;;;;;;10.13;1.33;;;18.50;99.90;;;;;;4974392;28;20298;-62
2022/06/27 10:09:42;;;;;;;6.53;1.25;;;19.60;99.90;;;;;;4974394;28;20208;-62
2022/06/27 10:12:31;;;;;;;7.30;1.27;;;19.70;99.90;;;;;;4969991;28;20223;-62
2022/06/27 10:15:12;;;;;;;9.40;1.45;;;19.50;99.90;;;;;;4973858;28;20181;-62
2022/06/27 10:17:47;;;;;;;5.13;1.38;;;19.10;99.90;;;;;;4974368;28;20204;-62
2022/06/27 10:20:26;;;;;;;6.07;1.35;;;19.30;99.90;;;;;;4973231;28;20311;-62
2022/06/27 10:23:25;;;;;;;9.35;1.77;;;19.50;99.90;;;;;;4973662;28;20327;-62
2022/06/27 10:25:53;;;;;;;12.02;1.65;;;20.80;99.90;;;;;;4971409;28;20234;-62
2022/06/27 10:28:20;;;;;;;7.00;1.23;;;19.70;99.90;;;;;;4974038;28;20196;-62
2022/06/27 10:30:52;;;;;;;8.27;1.48;;;19.70;99.90;;;;;;4967457;28;20181;-62
2022/06/27 10:33:26;;;;;;;5.60;1.30;;;20.30;99.90;;;;;;4955024;28;20265;-62
2022/06/27 10:38:38;;;;;;;7.82;1.30;;;19.20;99.90;;;;;;4970614;28;20238;-62
2022/06/27 10:41:05;;;;;;;7.50;1.20;;;19.00;99.90;;;;;;4973665;28;20303;-62
2022/06/27 10:43:39;;;;;;;7.00;1.13;;;18.60;99.90;;;;;;4972897;28;20168;-62
2022/06/27 10:46:11;;;;;;;7.53;1.30;;;18.70;99.90;;;;;;4973244;28;20222;-62
2022/06/27 10:48:41;;;;;;;7.50;1.40;;;18.60;99.90;;;;;;4973325;28;20267;-63
2022/06/27 10:51:26;;;;;;;5.45;1.10;;;18.90;99.90;;;;;;4972853;28;20267;-62
2022/06/27 10:54:11;;;;;;;8.73;1.42;;;19.40;99.90;;;;;;4973381;28;20255;-62
2022/06/27 10:56:41;;;;;;;6.30;1.42;;;19.30;99.90;;;;;;4973577;28;20204;-62
2022/06/27 10:59:28;;;;;;;8.05;1.45;;;19.20;99.90;;;;;;4973473;28;20180;-61
2022/06/27 11:01:53;;;;;;;6.95;1.45;;;18.70;99.90;;;;;;4973402;28;20203;-62
2022/06/27 11:04:36;;;;;;;7.90;1.45;;;18.80;99.90;;;;;;4956018;28;20171;-62
2022/06/27 11:07:07;;;;;;;12.57;1.40;;;19.10;99.90;;;;;;4973231;28;20228;-62
2022/06/27 11:09:52;;;;;;;6.88;1.50;;;19.30;99.90;;;;;;4973222;28;20259;-62
2022/06/27 11:12:20;;;;;;;9.80;1.52;;;19.60;99.90;;;;;;4973300;28;20176;-62
2022/06/27 11:14:49;;;;;;;7.85;1.65;;;19.50;99.90;;;;;;4973120;28;20176;-62
2022/06/27 11:17:29;;;;;;;11.45;1.58;;;19.40;99.90;;;;;;4972761;28;20172;-63
2022/06/27 11:20:09;;;;;;;8.75;1.67;;;20.20;99.90;;;;;;4969849;28;20273;-63
2022/06/27 11:22:36;;;;;;;13.07;1.55;;;20.10;99.90;;;;;;4972729;28;20180;-63
2022/06/27 11:25:03;;;;;;;9.70;1.42;;;20.00;99.90;;;;;;4972996;28;20172;-62
2022/06/27 11:27:44;;;;;;;11.82;1.73;;;19.20;99.90;;;;;;4972661;28;20239;-63
2022/06/27 11:32:56;;;;;;;12.48;1.50;;;18.20;99.90;;;;;;4965058;28;20276;-62
2022/06/27 11:35:22;;;;;;;10.75;1.63;;;18.10;99.90;;;;;;4970663;28;20190;-63
2022/06/27 11:37:48;;;;;;;12.82;2.38;;;18.10;99.90;;;;;;4972346;28;20179;-62
2022/06/27 11:40:13;;;;;;;17.75;2.05;;;18.30;99.90;;;;;;4971429;28;20230;-63
2022/06/27 11:42:42;;;;;;;13.48;2.13;;;18.60;99.90;;;;;;4972508;28;20723;-62
2022/06/27 11:45:10;;;;;;;11.75;1.63;;;19.00;99.90;;;;;;4972629;28;20179;-63
2022/06/27 11:47:40;;;;;;;13.30;2.08;;;19.90;99.90;;;;;;4972742;28;20247;-63
2022/06/27 11:50:11;;;;;;;10.48;1.80;;;20.30;99.90;;;;;;4972536;28;20172;-63
2022/06/27 11:52:38;;;;;;;8.90;1.95;;;20.80;99.90;;;;;;4972432;28;20187;-63
2022/06/27 11:55:19;;;;;;;8.15;1.95;;;20.20;99.90;;;;;;4972375;28;20267;-63
2022/06/27 11:57:50;;;;;;;10.98;1.95;;;20.30;99.90;;;;;;4954813;28;20167;-63
2022/06/27 12:00:22;;;;;;;12.52;1.83;;;20.50;99.90;;;;;;4972280;28;20366;-63
2022/06/27 12:03:06;;;;;;;16.05;2.25;;;20.90;99.90;;;;;;4972376;28;20216;-63
2022/06/27 12:05:34;;;;;;;9.98;1.80;;;20.80;99.90;;;;;;4971753;28;20234;-63
2022/06/27 12:08:04;;;;;;;10.15;1.40;;;20.80;99.90;;;;;;4971405;28;20366;-63
2022/06/27 12:10:41;;;;;;;10.13;1.95;;;20.20;99.90;;;;;;4971670;28;20195;-64
2022/06/27 12:13:17;;;;;;;8.90;1.60;;;20.70;99.90;;;;;;4970888;28;20214;-64
2022/06/27 12:15:45;;;;;;;11.23;1.52;;;20.60;99.90;;;;;;4971680;28;20652;-64
2022/06/27 12:18:12;;;;;;;9.57;1.27;;;20.80;99.90;;;;;;4971771;28;20175;-64
2022/06/27 12:20:40;;;;;;;4.18;1.15;;;21.70;99.90;;;;;;4972187;28;20277;-63
2022/06/27 12:23:06;;;;;;;5.80;1.30;;;21.90;99.90;;;;;;4972077;28;20635;-64
2022/06/27 12:25:35;;;;;;;9.25;1.63;;;22.10;99.90;;;;;;4971740;28;20267;-64
2022/06/27 12:28:05;;;;;;;6.72;1.17;;;22.90;99.90;;;;;;4972144;28;20179;-64
2022/06/27 12:30:31;;;;;;;12.80;1.25;;;22.20;99.90;;;;;;4972111;28;20635;-64
2022/06/27 12:32:57;;;;;;;5.78;1.35;;;21.80;99.90;;;;;;4971946;28;20266;-64
2022/06/27 12:35:23;;;;;;;8.90;1.00;;;21.80;99.90;;;;;;4971540;28;20642;-63
2022/06/27 12:37:49;;;;;;;15.93;1.70;;;22.60;99.90;;;;;;4972257;28;20183;-63
2022/06/27 12:40:14;;;;;;;7.22;1.20;;;22.60;99.90;;;;;;4971792;28;20210;-63
2022/06/27 12:42:40;;;;;;;5.50;1.10;;;22.60;99.90;;;;;;4971967;28;20180;-64
2022/06/27 12:45:07;;;;;;;8.23;1.25;;;22.90;99.90;;;;;;4971759;28;20570;-64
2022/06/27 12:47:32;;;;;;;7.82;1.23;;;24.90;99.90;;;;;;4971916;28;20188;-64
2022/06/27 12:49:58;;;;;;;10.48;1.20;;;22.80;99.90;;;;;;4971718;28;20176;-63
2022/06/27 12:52:24;;;;;;;9.10;1.20;;;22.50;99.90;;;;;;4971872;28;20214;-64
2022/06/27 12:54:49;;;;;;;6.00;1.58;;;21.90;99.90;;;;;;4969578;28;20183;-63
2022/06/27 12:57:16;;;;;;;7.65;1.17;;;22.10;99.90;;;;;;4971837;28;20610;-64